Time;durP1;ratioP1;P1;durP2;ratioP2;P2;SDS_P1;SDS_P2;PMS_P1;PMS_P2;Temp;Humidity;BMP_temperature;BMP_pressure;BME280_temperature;BME280_humidity;BME280_pressure;Samples;Min_cycle;Max_cycle;Signal;HPM_P1;HPM_P2
2022/04/28 00:00:24;;;;;;;17.23;7.85;;;3.80;99.90;;;;;;5068047;28;20043;-70
2022/04/28 00:02:57;;;;;;;14.23;6.90;;;3.70;99.90;;;;;;5066307;28;20036;-70
2022/04/28 00:05:24;;;;;;;14.82;8.20;;;3.70;99.90;;;;;;5052445;28;20497;-70
2022/04/28 00:07:52;;;;;;;11.52;8.10;;;3.60;99.90;;;;;;5047681;28;20063;-70
2022/04/28 00:10:21;;;;;;;15.43;8.02;;;3.60;99.90;;;;;;5066153;28;20055;-70
2022/04/28 00:12:46;;;;;;;12.40;7.88;;;3.60;99.90;;;;;;5066954;28;20033;-70
2022/04/28 00:15:15;;;;;;;12.45;7.43;;;3.70;99.90;;;;;;5044946;28;20055;-70
2022/04/28 00:17:41;;;;;;;12.15;7.25;;;3.50;99.90;;;;;;5064955;28;20071;-70
2022/04/28 00:20:07;;;;;;;15.40;8.15;;;3.50;99.90;;;;;;5043840;28;20499;-70
2022/04/28 00:22:33;;;;;;;14.18;7.97;;;3.50;99.90;;;;;;5066651;28;20036;-69
2022/04/28 00:24:59;;;;;;;19.85;7.88;;;3.50;99.90;;;;;;5049842;28;20558;-70
2022/04/28 00:27:25;;;;;;;13.57;7.80;;;3.40;99.90;;;;;;5064530;28;20044;-70
2022/04/28 00:29:50;;;;;;;15.15;8.75;;;3.40;99.90;;;;;;5066768;28;20039;-70
2022/04/28 00:32:16;;;;;;;15.70;7.45;;;3.40;99.90;;;;;;5050386;28;20054;-70
2022/04/28 00:34:42;;;;;;;11.00;6.65;;;3.40;99.90;;;;;;5065867;28;20116;-70
2022/04/28 00:37:11;;;;;;;19.55;8.02;;;3.30;99.90;;;;;;5063756;28;20048;-70
2022/04/28 00:39:38;;;;;;;14.57;7.90;;;3.60;99.90;;;;;;5031653;28;20054;-69
2022/04/28 00:42:11;;;;;;;16.63;7.88;;;3.30;99.90;;;;;;5084051;28;20424;-70
2022/04/28 00:44:40;;;;;;;21.27;8.18;;;3.20;99.90;;;;;;5047006;28;20195;-70
2022/04/28 00:47:07;;;;;;;15.02;7.93;;;3.30;99.90;;;;;;5083059;28;20623;-70
2022/04/28 00:52:17;;;;;;;14.73;8.02;;;3.10;99.90;;;;;;5064894;28;20476;-69
2022/04/28 00:54:49;;;;;;;13.77;7.95;;;3.00;99.90;;;;;;5065166;28;20045;-70
2022/04/28 00:57:15;;;;;;;15.48;8.18;;;3.00;99.90;;;;;;5081999;28;20031;-70
2022/04/28 00:59:41;;;;;;;15.18;8.20;;;3.00;99.90;;;;;;5066354;28;20031;-70
2022/04/28 01:02:11;;;;;;;13.88;7.82;;;3.00;99.90;;;;;;5045311;28;20040;-70
2022/04/28 01:04:38;;;;;;;14.13;8.35;;;2.90;99.90;;;;;;5063430;28;20044;-70
2022/04/28 01:07:05;;;;;;;18.48;8.82;;;2.90;99.90;;;;;;5062299;28;20090;-70
2022/04/28 01:09:36;;;;;;;13.38;8.00;;;2.90;99.90;;;;;;5083595;28;20051;-70
2022/04/28 01:12:10;;;;;;;18.80;9.27;;;3.00;99.90;;;;;;5064385;28;20035;-70
2022/04/28 01:14:35;;;;;;;17.33;8.73;;;2.80;99.90;;;;;;5083975;28;20044;-70
2022/04/28 01:17:02;;;;;;;15.43;9.15;;;2.80;99.90;;;;;;5067493;28;20035;-70
2022/04/28 01:19:28;;;;;;;20.25;9.77;;;2.80;99.90;;;;;;5062681;28;20119;-70
2022/04/28 01:21:56;;;;;;;19.05;9.10;;;2.80;99.90;;;;;;5065239;28;20326;-70
2022/04/28 01:24:22;;;;;;;22.25;10.90;;;2.70;99.90;;;;;;5045303;28;20049;-70
2022/04/28 01:26:49;;;;;;;14.35;8.27;;;2.70;99.90;;;;;;5065151;28;20177;-70
2022/04/28 01:29:15;;;;;;;20.35;9.00;;;2.70;99.90;;;;;;5064974;28;20055;-70
2022/04/28 01:31:40;;;;;;;17.52;8.88;;;2.70;99.90;;;;;;5047054;28;20413;-70
2022/04/28 01:34:11;;;;;;;15.88;8.98;;;2.70;99.90;;;;;;5047153;28;20051;-70
2022/04/28 01:36:37;;;;;;;16.65;8.75;;;2.70;99.90;;;;;;5074142;28;20043;-70
2022/04/28 01:39:06;;;;;;;22.38;10.93;;;2.60;99.90;;;;;;5060950;28;20040;-70
2022/04/28 01:41:33;;;;;;;17.13;8.75;;;2.60;99.90;;;;;;5047856;28;20036;-70
2022/04/28 01:43:58;;;;;;;17.35;8.95;;;2.60;99.90;;;;;;5065156;28;20044;-70
2022/04/28 01:46:24;;;;;;;18.30;8.35;;;2.60;99.90;;;;;;5065113;28;20040;-69
2022/04/28 01:48:52;;;;;;;15.45;8.70;;;2.50;99.90;;;;;;5030915;28;20051;-70
2022/04/28 01:56:49;;;;;;;16.48;9.27;;;2.50;99.90;;;;;;5065601;28;20436;-70
2022/04/28 01:59:15;;;;;;;18.33;10.77;;;2.50;99.90;;;;;;5082241;28;20121;-70
2022/04/28 02:01:40;;;;;;;18.58;9.82;;;2.40;99.90;;;;;;5056553;28;20036;-70
2022/04/28 02:04:09;;;;;;;21.52;10.15;;;2.40;99.90;;;;;;5050849;28;20048;-70
2022/04/28 02:06:34;;;;;;;17.50;9.20;;;2.30;99.90;;;;;;5081002;28;20047;-70
2022/04/28 02:09:00;;;;;;;19.92;9.60;;;2.30;99.90;;;;;;5052075;28;20039;-70
2022/04/28 02:11:26;;;;;;;14.52;8.88;;;2.30;99.90;;;;;;5067280;28;20481;-70
2022/04/28 02:13:52;;;;;;;14.93;8.75;;;2.20;99.90;;;;;;5049824;28;20115;-70
2022/04/28 02:16:18;;;;;;;19.02;9.63;;;2.20;99.90;;;;;;5065122;28;20036;-70
2022/04/28 02:18:47;;;;;;;16.75;9.55;;;2.20;99.90;;;;;;5045238;28;20580;-70
2022/04/28 02:21:12;;;;;;;18.33;8.85;;;2.10;99.90;;;;;;5045220;28;20044;-70
2022/04/28 02:23:38;;;;;;;16.55;9.52;;;2.00;99.90;;;;;;5064911;28;20264;-70
2022/04/28 02:26:04;;;;;;;16.67;9.70;;;2.00;99.90;;;;;;5049449;28;20075;-70
2022/04/28 02:28:29;;;;;;;23.08;11.13;;;2.00;99.90;;;;;;5048452;28;20062;-70
2022/04/28 02:30:55;;;;;;;20.23;9.55;;;2.00;99.90;;;;;;5065587;28;20469;-70
2022/04/28 02:33:21;;;;;;;19.00;9.20;;;1.90;99.90;;;;;;5046578;28;20076;-70
2022/04/28 02:35:47;;;;;;;25.98;10.60;;;1.80;99.90;;;;;;5044692;28;20040;-70
2022/04/28 02:38:13;;;;;;;20.58;11.30;;;1.80;99.90;;;;;;5081786;28;20044;-70
2022/04/28 02:40:38;;;;;;;15.73;10.18;;;1.80;99.90;;;;;;5064442;28;20052;-70
2022/04/28 02:43:04;;;;;;;17.45;10.00;;;1.80;99.90;;;;;;5040233;28;20042;-70
2022/04/28 02:45:30;;;;;;;18.98;10.90;;;1.80;99.90;;;;;;5041404;28;20239;-70
2022/04/28 02:47:56;;;;;;;17.42;10.70;;;1.80;99.90;;;;;;5046842;28;20447;-70
2022/04/28 02:50:22;;;;;;;17.67;11.38;;;1.80;99.90;;;;;;5051490;28;20053;-70
2022/04/28 02:52:52;;;;;;;19.60;10.32;;;1.80;99.90;;;;;;5039899;28;20067;-70
2022/04/28 02:55:18;;;;;;;22.77;10.57;;;1.90;99.90;;;;;;5088341;28;20040;-70
2022/04/28 02:57:43;;;;;;;21.63;10.50;;;1.90;99.90;;;;;;5086522;28;20370;-70
2022/04/28 03:00:10;;;;;;;20.45;11.63;;;1.90;99.90;;;;;;5060016;28;20032;-70
2022/04/28 03:02:35;;;;;;;20.63;11.23;;;1.90;99.90;;;;;;5067864;28;20545;-70
2022/04/28 03:05:04;;;;;;;19.15;11.38;;;1.90;99.90;;;;;;5068671;28;20032;-70
2022/04/28 03:13:13;;;;;;;21.67;10.60;;;2.00;99.90;;;;;;5038222;28;20118;-70
2022/04/28 03:15:39;;;;;;;22.17;10.20;;;2.00;99.90;;;;;;5041965;28;20482;-70
2022/04/28 03:18:05;;;;;;;20.55;10.40;;;2.00;99.90;;;;;;5047930;28;20036;-70
2022/04/28 03:20:31;;;;;;;22.60;11.07;;;2.00;99.90;;;;;;5082448;28;21405;-70
2022/04/28 03:22:56;;;;;;;19.77;10.00;;;2.00;99.90;;;;;;5069192;28;20442;-70
2022/04/28 03:25:22;;;;;;;20.80;11.68;;;2.00;99.90;;;;;;5050656;28;20052;-70
2022/04/28 03:27:48;;;;;;;23.55;11.70;;;2.00;99.90;;;;;;5042345;28;20741;-70
2022/04/28 03:30:17;;;;;;;24.42;11.85;;;2.00;99.90;;;;;;5066352;28;20036;-70
2022/04/28 03:32:42;;;;;;;20.75;10.95;;;2.10;99.90;;;;;;5070156;28;20468;-70
2022/04/28 03:35:10;;;;;;;21.63;11.88;;;2.10;99.90;;;;;;5047751;28;20044;-70
2022/04/28 03:37:36;;;;;;;20.95;11.90;;;2.10;99.90;;;;;;5060894;28;20055;-70
2022/04/28 03:40:03;;;;;;;21.10;11.45;;;2.20;99.90;;;;;;5066266;28;20040;-70
2022/04/28 03:42:29;;;;;;;25.30;11.23;;;2.30;99.90;;;;;;5066490;28;20040;-70
2022/04/28 03:44:55;;;;;;;22.50;11.30;;;2.30;99.90;;;;;;5067855;28;20555;-70
2022/04/28 03:47:21;;;;;;;24.02;11.27;;;2.30;99.90;;;;;;5041443;28;20051;-70
2022/04/28 03:49:49;;;;;;;25.70;11.68;;;2.40;99.90;;;;;;5068358;28;20352;-70
2022/04/28 03:52:18;;;;;;;23.95;10.95;;;2.40;99.90;;;;;;5062683;28;20496;-70
2022/04/28 03:54:43;;;;;;;24.58;12.02;;;2.50;99.90;;;;;;5067450;28;20040;-70
2022/04/28 03:57:09;;;;;;;22.45;10.88;;;2.60;99.90;;;;;;5040720;28;20037;-70
2022/04/28 03:59:35;;;;;;;23.73;12.13;;;3.00;99.90;;;;;;5066820;28;20078;-70
2022/04/28 04:02:01;;;;;;;20.33;11.10;;;2.70;99.90;;;;;;5068289;28;20501;-69
2022/04/28 04:04:27;;;;;;;26.75;11.55;;;2.70;99.90;;;;;;5046779;28;20093;-70
2022/04/28 04:06:52;;;;;;;22.48;12.13;;;2.70;99.90;;;;;;5057664;28;20048;-70
2022/04/28 04:09:18;;;;;;;23.25;11.70;;;2.70;99.90;;;;;;5046192;28;20086;-70
2022/04/28 04:11:44;;;;;;;26.13;12.77;;;2.90;99.90;;;;;;5066139;28;20713;-70
2022/04/28 04:14:11;;;;;;;21.85;11.23;;;2.70;99.90;;;;;;5031896;28;20190;-70
2022/04/28 04:16:37;;;;;;;25.30;12.40;;;2.80;99.90;;;;;;5032850;28;20036;-70
2022/04/28 04:19:03;;;;;;;24.40;11.50;;;2.90;99.90;;;;;;5067407;28;20428;-70
2022/04/28 04:21:28;;;;;;;23.83;11.13;;;3.00;99.90;;;;;;5043367;28;20036;-70
2022/04/28 04:23:54;;;;;;;23.40;12.02;;;3.10;99.90;;;;;;5064982;28;20036;-70
2022/04/28 04:26:20;;;;;;;20.55;10.80;;;3.20;99.90;;;;;;5058175;28;20082;-70
2022/04/28 04:28:46;;;;;;;23.83;11.60;;;3.20;99.90;;;;;;5065977;28;20109;-70
2022/04/28 04:33:55;;;;;;;19.90;11.43;;;3.40;99.90;;;;;;5070884;28;20056;-70
2022/04/28 04:36:21;;;;;;;21.63;10.73;;;3.50;99.90;;;;;;5065582;28;20032;-70
2022/04/28 04:38:47;;;;;;;21.17;11.90;;;3.60;99.90;;;;;;5030841;28;20048;-70
2022/04/28 04:41:13;;;;;;;20.90;11.77;;;3.60;99.90;;;;;;5040114;28;20119;-70
2022/04/28 04:43:41;;;;;;;20.35;10.70;;;3.60;99.90;;;;;;5066634;28;20097;-70
2022/04/28 04:46:07;;;;;;;19.52;11.93;;;3.60;99.90;;;;;;5065709;28;20047;-70
2022/04/28 04:48:33;;;;;;;22.60;10.75;;;3.60;99.90;;;;;;5057737;28;20501;-70
2022/04/28 04:50:59;;;;;;;19.67;10.68;;;3.60;99.90;;;;;;5045447;28;20039;-70
2022/04/28 04:53:25;;;;;;;23.85;10.85;;;3.60;99.90;;;;;;5046207;28;20103;-71
2022/04/28 04:55:51;;;;;;;20.20;11.38;;;3.70;99.90;;;;;;5054009;28;20074;-70
2022/04/28 04:58:17;;;;;;;20.30;10.80;;;3.70;99.90;;;;;;5064756;28;20329;-70
2022/04/28 05:00:42;;;;;;;19.85;9.52;;;3.80;99.90;;;;;;5050937;28;20473;-70
2022/04/28 05:03:08;;;;;;;17.90;9.43;;;3.90;99.90;;;;;;5048106;28;20053;-70
2022/04/28 05:05:34;;;;;;;21.77;10.93;;;4.00;99.90;;;;;;5042325;28;20078;-70
2022/04/28 05:08:00;;;;;;;22.92;12.48;;;4.00;99.90;;;;;;5047434;28;20032;-71
2022/04/28 05:10:26;;;;;;;22.92;13.40;;;4.20;99.90;;;;;;5075487;28;20439;-70
2022/04/28 05:12:52;;;;;;;26.85;14.05;;;4.20;99.90;;;;;;5040002;28;20032;-70
2022/04/28 05:15:18;;;;;;;25.40;14.05;;;4.30;99.90;;;;;;5051274;28;20066;-71
2022/04/28 05:17:43;;;;;;;26.05;13.95;;;4.50;99.90;;;;;;5048576;28;20585;-70
2022/04/28 05:20:10;;;;;;;22.67;12.57;;;4.50;99.90;;;;;;5045998;28;20065;-71
2022/04/28 05:22:35;;;;;;;26.08;11.77;;;4.60;99.90;;;;;;5065529;28;20030;-70
2022/04/28 05:25:01;;;;;;;22.20;10.70;;;4.70;99.90;;;;;;5041544;28;20040;-70
2022/04/28 05:27:27;;;;;;;19.98;11.07;;;4.80;99.90;;;;;;5066371;28;20523;-71
2022/04/28 05:29:53;;;;;;;21.83;10.60;;;4.80;99.90;;;;;;5037892;28;20035;-71
2022/04/28 05:32:19;;;;;;;14.68;10.65;;;4.80;99.90;;;;;;5062828;28;20066;-70
2022/04/28 05:34:44;;;;;;;25.48;10.73;;;4.80;99.90;;;;;;5032328;28;20040;-71
2022/04/28 05:37:12;;;;;;;18.55;10.90;;;4.90;99.90;;;;;;5048425;28;20096;-71
2022/04/28 05:39:41;;;;;;;21.45;11.18;;;4.90;99.90;;;;;;5066896;28;20062;-70
2022/04/28 05:42:07;;;;;;;18.33;10.93;;;5.00;99.90;;;;;;5052147;28;20556;-71
2022/04/28 05:47:19;;;;;;;15.98;10.93;;;5.10;99.90;;;;;;5063633;28;20314;-70
2022/04/28 05:49:45;;;;;;;18.42;10.85;;;5.20;99.90;;;;;;5048385;28;20040;-71
2022/04/28 05:52:14;;;;;;;19.27;10.95;;;5.30;99.90;;;;;;5032859;28;20083;-71
2022/04/28 05:54:40;;;;;;;17.90;9.52;;;5.40;99.90;;;;;;5081334;28;20146;-71
2022/04/28 05:57:06;;;;;;;22.02;11.48;;;5.50;99.90;;;;;;5065966;28;20445;-71
2022/04/28 05:59:32;;;;;;;23.25;11.82;;;5.60;99.90;;;;;;5043924;28;20150;-71
2022/04/28 06:02:02;;;;;;;18.20;11.20;;;5.60;99.90;;;;;;5062738;28;20397;-71
2022/04/28 06:04:31;;;;;;;18.00;10.38;;;5.70;99.90;;;;;;5059256;28;20044;-71
2022/04/28 06:06:56;;;;;;;16.35;9.07;;;5.80;99.90;;;;;;5065095;28;20024;-71
2022/04/28 06:09:22;;;;;;;14.68;8.57;;;5.90;99.90;;;;;;5026400;28;20505;-71
2022/04/28 06:11:48;;;;;;;17.25;7.45;;;6.00;99.90;;;;;;5049192;28;20062;-71
2022/04/28 06:14:13;;;;;;;13.77;7.80;;;6.10;99.90;;;;;;5047431;28;20063;-71
2022/04/28 06:16:39;;;;;;;16.67;7.63;;;6.10;99.90;;;;;;5048733;28;20036;-71
2022/04/28 06:19:05;;;;;;;14.93;7.15;;;6.10;99.90;;;;;;5064015;28;20044;-71
2022/04/28 06:21:31;;;;;;;16.30;7.97;;;6.20;99.90;;;;;;5068594;28;20044;-70
2022/04/28 06:23:57;;;;;;;19.55;7.95;;;6.20;99.90;;;;;;5037021;28;21587;-71
2022/04/28 06:26:22;;;;;;;11.80;7.65;;;6.30;99.90;;;;;;5052746;28;20461;-71
2022/04/28 06:28:48;;;;;;;15.90;7.95;;;6.40;99.90;;;;;;5066460;28;20116;-70
2022/04/28 06:31:14;;;;;;;16.70;7.63;;;6.50;99.90;;;;;;5051209;28;20063;-71
2022/04/28 06:33:40;;;;;;;16.92;7.63;;;6.40;99.90;;;;;;5066085;28;20040;-71
2022/04/28 06:36:06;;;;;;;14.25;7.78;;;6.50;99.90;;;;;;5068081;28;20037;-71
2022/04/28 06:38:32;;;;;;;14.90;7.95;;;6.60;99.90;;;;;;5063396;28;20539;-71
2022/04/28 06:41:00;;;;;;;11.10;6.95;;;6.70;99.90;;;;;;5054065;28;20050;-71
2022/04/28 06:43:26;;;;;;;13.73;8.55;;;6.80;99.90;;;;;;5040628;28;20185;-71
2022/04/28 06:48:36;;;;;;;14.63;7.68;;;6.90;99.90;;;;;;5042087;28;20386;-71
2022/04/28 06:51:04;;;;;;;16.10;8.30;;;7.00;99.90;;;;;;5055095;28;20345;-71
2022/04/28 06:53:30;;;;;;;16.13;7.93;;;7.10;99.90;;;;;;5054761;28;20450;-71
2022/04/28 06:55:59;;;;;;;13.65;6.95;;;7.30;99.90;;;;;;5080157;28;20077;-71
2022/04/28 06:58:25;;;;;;;11.93;7.35;;;7.40;99.90;;;;;;5073641;28;20439;-71
2022/04/28 07:00:53;;;;;;;13.07;6.18;;;7.50;99.90;;;;;;5054886;28;20044;-71
2022/04/28 07:03:19;;;;;;;17.88;6.35;;;7.70;99.90;;;;;;5077072;28;20444;-71
2022/04/28 07:05:47;;;;;;;12.07;5.82;;;7.80;99.90;;;;;;5062926;28;20037;-71
2022/04/28 07:08:13;;;;;;;10.77;5.50;;;7.90;99.90;;;;;;5072335;28;20040;-71
2022/04/28 07:10:40;;;;;;;8.80;4.72;;;8.00;99.90;;;;;;5074319;28;20051;-72
2022/04/28 07:13:06;;;;;;;9.23;4.50;;;8.50;99.90;;;;;;5074452;28;20059;-71
2022/04/28 07:15:38;;;;;;;9.10;5.03;;;8.30;99.90;;;;;;5062730;28;20032;-71
2022/04/28 07:18:05;;;;;;;12.85;5.13;;;8.50;99.90;;;;;;5072890;28;20123;-71
2022/04/28 07:20:32;;;;;;;10.32;5.03;;;8.60;99.90;;;;;;5063460;28;20041;-72
2022/04/28 07:23:01;;;;;;;10.45;5.00;;;8.80;99.90;;;;;;5040627;28;20040;-72
2022/04/28 07:25:28;;;;;;;9.55;5.55;;;9.20;99.90;;;;;;5064562;28;20037;-72
2022/04/28 07:27:55;;;;;;;10.68;5.53;;;9.70;99.90;;;;;;5086773;28;20081;-72
2022/04/28 07:30:21;;;;;;;13.07;5.50;;;10.10;99.90;;;;;;5073545;28;20063;-72
2022/04/28 07:32:51;;;;;;;12.15;5.10;;;10.50;99.90;;;;;;5059859;28;20075;-72
2022/04/28 07:35:20;;;;;;;12.95;5.78;;;10.80;99.90;;;;;;5057447;28;20047;-72
2022/04/28 07:37:46;;;;;;;11.73;5.60;;;11.00;99.90;;;;;;5073677;28;20091;-72
2022/04/28 07:40:12;;;;;;;11.30;5.50;;;11.00;99.90;;;;;;5073642;28;20088;-72
2022/04/28 07:42:37;;;;;;;10.02;6.00;;;11.00;99.90;;;;;;5056841;28;20623;-72
2022/04/28 07:45:07;;;;;;;14.18;6.30;;;11.00;99.90;;;;;;5073784;28;20036;-72
2022/04/28 07:47:32;;;;;;;10.80;6.03;;;11.40;99.90;;;;;;5057220;28;20557;-72
2022/04/28 07:49:58;;;;;;;11.27;4.82;;;12.60;99.90;;;;;;5041361;28;20135;-72
2022/04/28 07:52:30;;;;;;;12.02;4.80;;;13.20;99.90;;;;;;5061242;28;20046;-72
2022/04/28 07:54:56;;;;;;;8.25;4.57;;;13.30;98.60;;;;;;5091537;28;20043;-72
2022/04/28 07:57:23;;;;;;;10.77;4.70;;;13.00;99.90;;;;;;5057047;28;20039;-72
2022/04/28 07:59:55;;;;;;;11.52;5.35;;;12.50;99.90;;;;;;5056876;28;20725;-72
2022/04/28 08:02:21;;;;;;;12.40;6.00;;;12.50;99.90;;;;;;5073446;28;20044;-71
2022/04/28 08:04:47;;;;;;;10.95;5.47;;;12.40;99.90;;;;;;5056387;28;20040;-72
2022/04/28 08:07:15;;;;;;;10.35;5.43;;;12.20;99.90;;;;;;5030608;28;20089;-71
2022/04/28 08:09:41;;;;;;;8.88;4.38;;;12.10;99.90;;;;;;5066987;28;20044;-72
2022/04/28 08:12:09;;;;;;;10.95;5.07;;;12.20;99.90;;;;;;5053268;28;20098;-72
2022/04/28 08:14:40;;;;;;;9.90;5.07;;;12.00;99.90;;;;;;5062554;28;20508;-72
2022/04/28 08:17:09;;;;;;;7.88;4.93;;;11.90;99.90;;;;;;5064546;28;20036;-71
2022/04/28 08:19:38;;;;;;;13.20;5.65;;;11.60;99.90;;;;;;5055238;28;20094;-72
2022/04/28 08:22:04;;;;;;;10.45;4.60;;;11.40;99.90;;;;;;5063130;28;20119;-71
2022/04/28 08:24:32;;;;;;;8.65;4.88;;;11.20;99.90;;;;;;5058888;28;20454;-71
2022/04/28 08:26:58;;;;;;;12.27;4.85;;;11.20;99.90;;;;;;5073756;28;20405;-71
2022/04/28 08:29:23;;;;;;;15.40;5.10;;;11.00;99.90;;;;;;5055719;28;20036;-71
2022/04/28 08:31:49;;;;;;;8.88;4.45;;;11.00;99.90;;;;;;5072564;28;20043;-71
2022/04/28 08:34:22;;;;;;;9.27;4.53;;;11.00;99.90;;;;;;5060362;28;20127;-71
2022/04/28 08:36:49;;;;;;;14.40;4.88;;;11.10;99.90;;;;;;5066928;28;20059;-71
2022/04/28 08:39:15;;;;;;;9.88;4.63;;;11.10;99.90;;;;;;5063793;28;20044;-71
2022/04/28 08:41:45;;;;;;;12.30;5.13;;;11.10;99.90;;;;;;5057811;28;20094;-71
2022/04/28 08:44:21;;;;;;;9.85;4.85;;;11.00;99.90;;;;;;5072173;28;20048;-71
2022/04/28 08:46:51;;;;;;;12.93;5.13;;;10.90;99.90;;;;;;5072470;28;20451;-71
2022/04/28 08:49:34;;;;;;;13.55;5.43;;;10.90;99.90;;;;;;5055842;28;20431;-71
2022/04/28 08:52:04;;;;;;;8.52;4.00;;;11.00;99.90;;;;;;5072381;28;20046;-71
2022/04/28 08:54:31;;;;;;;8.50;3.85;;;11.10;99.90;;;;;;5061469;28;20463;-71
2022/04/28 08:57:01;;;;;;;8.73;3.58;;;11.30;99.90;;;;;;5085814;28;20039;-71
2022/04/28 08:59:26;;;;;;;11.80;3.30;;;11.40;99.90;;;;;;5070617;28;20389;-71
2022/04/28 09:01:52;;;;;;;5.78;3.10;;;11.50;99.90;;;;;;5052502;28;20102;-71
2022/04/28 09:04:19;;;;;;;7.95;3.50;;;11.60;99.90;;;;;;5065422;28;20047;-71
2022/04/28 09:06:50;;;;;;;9.75;3.08;;;11.50;99.90;;;;;;5074757;28;20493;-72
2022/04/28 09:09:17;;;;;;;6.80;3.40;;;11.50;99.90;;;;;;5059823;28;20102;-71
2022/04/28 09:11:44;;;;;;;8.38;3.40;;;11.50;99.90;;;;;;5073539;28;20036;-72
2022/04/28 09:14:22;;;;;;;5.13;3.00;;;11.60;99.90;;;;;;5071141;28;20048;-71
2022/04/28 09:16:52;;;;;;;8.70;3.50;;;11.50;99.90;;;;;;5077061;28;20553;-71
2022/04/28 09:19:28;;;;;;;6.40;2.95;;;11.60;99.90;;;;;;5071907;28;20475;-71
2022/04/28 09:22:05;;;;;;;8.23;3.10;;;11.60;99.90;;;;;;5072480;28;20505;-71
2022/04/28 09:24:34;;;;;;;9.77;2.90;;;11.70;99.90;;;;;;5071816;28;20508;-71
2022/04/28 09:26:59;;;;;;;7.28;3.28;;;11.80;99.90;;;;;;5047903;28;20051;-72
2022/04/28 09:29:36;;;;;;;8.10;3.40;;;11.90;99.90;;;;;;5051920;28;20048;-71
2022/04/28 09:32:11;;;;;;;10.93;3.20;;;12.00;99.90;;;;;;5076707;28;20174;-71
2022/04/28 09:34:48;;;;;;;8.88;3.58;;;12.10;99.90;;;;;;5070932;28;20107;-72
2022/04/28 09:37:23;;;;;;;10.13;3.35;;;12.20;99.10;;;;;;5068622;28;20052;-71
2022/04/28 09:42:41;;;;;;;11.20;3.78;;;12.10;99.50;;;;;;5068256;28;20045;-72
2022/04/28 09:45:12;;;;;;;8.18;3.35;;;12.20;99.90;;;;;;5068307;28;20047;-71
2022/04/28 09:47:38;;;;;;;8.40;3.05;;;12.30;99.80;;;;;;5068202;28;20036;-71
2022/04/28 09:50:17;;;;;;;8.38;3.40;;;12.30;99.50;;;;;;5068026;28;20093;-71
2022/04/28 09:52:44;;;;;;;10.93;3.38;;;12.50;99.50;;;;;;5042169;28;20059;-72
2022/04/28 09:55:11;;;;;;;8.55;3.25;;;12.80;99.50;;;;;;5054107;28;20037;-72
2022/04/28 09:57:37;;;;;;;8.50;3.17;;;13.10;99.60;;;;;;5064387;28;20490;-72
2022/04/28 10:00:04;;;;;;;10.68;4.28;;;13.40;99.10;;;;;;5052498;28;20086;-72
2022/04/28 10:02:29;;;;;;;7.63;3.67;;;13.50;98.60;;;;;;5065120;28;20041;-72
2022/04/28 10:04:56;;;;;;;8.70;3.28;;;13.80;98.40;;;;;;5053481;28;20457;-72
2022/04/28 10:07:23;;;;;;;6.55;3.25;;;14.20;97.90;;;;;;5063096;28;20040;-72
2022/04/28 10:09:51;;;;;;;7.55;3.25;;;14.60;97.00;;;;;;5041169;28;20115;-73
2022/04/28 10:12:27;;;;;;;10.68;3.50;;;15.10;97.20;;;;;;5066295;28;20040;-73
2022/04/28 10:14:54;;;;;;;10.50;4.07;;;15.30;95.30;;;;;;5053433;28;20037;-70
2022/04/28 10:17:30;;;;;;;7.55;3.70;;;15.30;95.60;;;;;;5071232;28;20112;-71
2022/04/28 10:19:59;;;;;;;9.15;3.63;;;15.60;95.00;;;;;;5068790;28;20036;-71
2022/04/28 10:22:33;;;;;;;6.82;3.50;;;15.70;95.10;;;;;;5062911;28;20036;-71
2022/04/28 10:33:27;;;;;;;6.15;3.40;;;16.60;93.00;;;;;;5067419;28;20057;-71
2022/04/28 10:35:54;;;;;;;5.75;3.33;;;16.70;93.40;;;;;;5032407;28;20045;-71
2022/04/28 10:38:23;;;;;;;8.73;3.50;;;16.70;92.70;;;;;;5055575;28;20064;-71
2022/04/28 10:40:59;;;;;;;8.02;3.03;;;16.60;92.50;;;;;;5058664;28;20044;-72
2022/04/28 10:43:26;;;;;;;8.57;3.30;;;16.60;91.40;;;;;;5060518;28;20328;-72
2022/04/28 10:45:56;;;;;;;6.13;3.50;;;16.70;92.10;;;;;;5055978;28;20048;-72
2022/04/28 10:48:33;;;;;;;10.63;3.65;;;16.80;92.10;;;;;;5063419;28;20040;-72
2022/04/28 10:50:59;;;;;;;8.57;4.20;;;17.10;92.00;;;;;;5046836;28;20037;-72
2022/04/28 10:53:25;;;;;;;6.53;3.70;;;17.10;91.20;;;;;;5044000;28;20049;-72
2022/04/28 10:55:52;;;;;;;9.23;3.55;;;16.80;90.90;;;;;;5061080;28;20523;-72
2022/04/28 10:58:26;;;;;;;6.65;3.75;;;16.40;90.80;;;;;;5063271;28;20044;-72
2022/04/28 11:00:57;;;;;;;8.00;3.90;;;16.30;90.90;;;;;;5060239;28;20076;-72
2022/04/28 11:03:42;;;;;;;6.35;3.60;;;16.30;91.10;;;;;;5047749;28;20505;-72
2022/04/28 11:06:12;;;;;;;9.88;3.55;;;16.30;90.00;;;;;;5061295;28;20098;-71
2022/04/28 11:08:44;;;;;;;7.40;3.80;;;16.50;90.50;;;;;;5081036;28;20049;-72
2022/04/28 11:11:12;;;;;;;7.90;3.30;;;16.50;90.90;;;;;;5068693;28;20413;-72
2022/04/28 11:13:43;;;;;;;5.93;3.30;;;16.90;91.20;;;;;;5036071;28;20321;-73
2022/04/28 11:16:11;;;;;;;9.90;3.65;;;16.90;90.90;;;;;;5055639;28;20033;-73
2022/04/28 11:18:37;;;;;;;10.18;3.88;;;16.40;89.60;;;;;;5069759;28;20029;-72
2022/04/28 11:21:04;;;;;;;10.63;3.60;;;16.00;89.50;;;;;;5056232;28;20044;-71
2022/04/28 11:23:41;;;;;;;9.57;3.83;;;15.50;90.30;;;;;;5062550;28;20049;-72
2022/04/28 11:26:07;;;;;;;9.95;3.55;;;15.30;90.50;;;;;;5075633;28;20102;-71
2022/04/28 11:28:35;;;;;;;10.10;4.18;;;15.00;90.80;;;;;;5047428;28;20048;-71
2022/04/28 11:31:01;;;;;;;7.72;3.47;;;14.90;91.20;;;;;;5062973;28;20036;-72
2022/04/28 11:33:27;;;;;;;8.07;3.65;;;14.80;91.30;;;;;;5041924;28;20047;-71
2022/04/28 11:35:53;;;;;;;8.90;3.47;;;14.60;91.70;;;;;;5024405;28;20168;-71
2022/04/28 11:38:32;;;;;;;12.85;4.18;;;14.40;91.80;;;;;;5055291;28;20061;-72
2022/04/28 11:41:03;;;;;;;10.40;3.90;;;14.50;91.80;;;;;;5035216;28;20037;-72
2022/04/28 11:43:36;;;;;;;10.00;3.70;;;14.70;92.10;;;;;;5061801;28;20044;-71
2022/04/28 11:46:02;;;;;;;8.10;3.88;;;14.90;92.10;;;;;;5062504;28;20556;-72
2022/04/28 11:48:29;;;;;;;11.60;3.88;;;14.80;92.30;;;;;;5047986;28;20043;-72
2022/04/28 11:51:04;;;;;;;7.38;4.22;;;14.70;92.00;;;;;;5062151;28;20036;-71
2022/04/28 11:53:44;;;;;;;9.02;4.07;;;14.60;91.90;;;;;;5062881;28;20505;-71
2022/04/28 11:56:28;;;;;;;11.25;4.80;;;14.50;91.90;;;;;;5059477;28;20524;-72
2022/04/28 11:58:54;;;;;;;6.82;4.22;;;14.40;92.10;;;;;;5051189;28;20046;-72
2022/04/28 12:01:21;;;;;;;7.75;3.85;;;14.60;92.30;;;;;;5064785;28;20512;-71
2022/04/28 12:03:51;;;;;;;16.02;4.85;;;14.70;92.30;;;;;;5066206;28;20037;-71
2022/04/28 12:06:18;;;;;;;8.80;4.20;;;14.60;92.10;;;;;;5067349;28;20060;-71
2022/04/28 12:08:52;;;;;;;13.05;4.20;;;14.50;92.40;;;;;;5073061;28;20068;-71
2022/04/28 12:14:22;;;;;;;11.20;5.63;;;14.50;92.50;;;;;;5067234;28;20089;-72
2022/04/28 12:19:47;;;;;;;11.88;4.40;;;14.20;92.20;;;;;;5065851;28;20036;-71
2022/04/28 12:22:14;;;;;;;13.95;5.18;;;14.50;92.30;;;;;;5063290;28;20072;-71
2022/04/28 12:24:43;;;;;;;12.52;4.20;;;14.40;92.20;;;;;;5050077;28;20048;-71
2022/04/28 12:27:11;;;;;;;8.85;4.03;;;14.50;92.60;;;;;;5062554;28;20032;-71
2022/04/28 12:29:58;;;;;;;14.13;4.78;;;14.90;93.00;;;;;;5046345;28;20044;-71
2022/04/28 12:32:25;;;;;;;17.58;4.80;;;15.10;92.20;;;;;;5062597;28;20557;-72
2022/04/28 12:35:03;;;;;;;12.65;4.55;;;15.30;92.30;;;;;;5017372;28;20037;-73
2022/04/28 12:37:29;;;;;;;14.30;4.35;;;15.70;92.30;;;;;;5060606;28;20052;-71
2022/04/28 12:40:01;;;;;;;11.00;4.78;;;15.70;91.50;;;;;;5062118;28;20040;-71
2022/04/28 12:42:43;;;;;;;8.73;4.40;;;15.70;91.10;;;;;;5060334;28;20036;-71
2022/04/28 12:45:09;;;;;;;9.57;3.90;;;15.60;91.50;;;;;;5059925;28;20047;-72
2022/04/28 12:47:41;;;;;;;10.27;4.30;;;15.50;91.10;;;;;;5052810;28;20438;-71
2022/04/28 12:50:23;;;;;;;7.47;4.57;;;15.40;91.20;;;;;;5044116;28;20040;-72
2022/04/28 12:52:50;;;;;;;10.68;4.43;;;15.10;90.90;;;;;;5060967;28;20798;-72
2022/04/28 12:55:18;;;;;;;13.05;4.50;;;14.90;91.30;;;;;;5042067;28;20283;-71
2022/04/28 12:57:45;;;;;;;15.90;5.30;;;15.20;91.80;;;;;;5044665;28;20065;-72
2022/04/28 13:00:14;;;;;;;8.98;5.07;;;15.50;92.10;;;;;;5028468;28;20036;-72
2022/04/28 13:02:47;;;;;;;11.00;4.60;;;15.50;91.40;;;;;;5059505;28;20033;-71
2022/04/28 13:05:18;;;;;;;11.23;4.60;;;15.90;91.00;;;;;;5060897;28;20420;-72
2022/04/28 13:07:44;;;;;;;11.00;4.70;;;16.10;90.20;;;;;;5062234;28;20029;-71
2022/04/28 13:10:16;;;;;;;8.43;4.07;;;16.00;90.00;;;;;;5060745;28;20135;-72
2022/04/28 13:12:42;;;;;;;10.27;4.30;;;15.90;90.60;;;;;;5045061;28;20044;-71
2022/04/28 13:15:08;;;;;;;9.60;4.18;;;16.20;90.60;;;;;;5022852;28;20052;-71
2022/04/28 13:17:36;;;;;;;8.88;3.90;;;16.50;90.80;;;;;;5040998;28;20036;-72
2022/04/28 13:20:06;;;;;;;9.27;3.95;;;16.60;89.90;;;;;;5063042;28;20092;-72
2022/04/28 13:22:31;;;;;;;10.60;4.50;;;16.30;89.90;;;;;;5067746;28;20041;-72
2022/04/28 13:24:57;;;;;;;9.52;3.92;;;16.30;89.80;;;;;;5067895;28;20053;-72